Porthos — FM2710 — position and weather

sailwx.info

Track history (hours):
 
Tides and Currents Weather Stations Pressure Air Temp Water Temp Dewpoint Dewpoint Depression Visibility Wind Speed Wind Dir Waves Ship Positions

Porthos

Last reported at 2014-Sep-29 06:28 UTC. Time now 2014-Oct-01 08:11 UTC.
Position N 50°48' E 003°09'.

Length 39 m; draft 3 m.

MMSI: 226002650.

Date/timePositionNaut miles runAvg speedWind from/ knotsBaromVisibWave heightAir tempDewpointWater temp
2014-Sep-29 06:28N 50°48' E 003°09'6 6.1
2014-Sep-29 05:34N 50°50' E 003°17'5 5.0
2014-Sep-29 04:33N 50°54' E 003°23'2 1.6
2014-Sep-29 03:20N 50°55' E 003°25'0 0.0
2014-Sep-29 02:29N 50°55' E 003°25'0 0.0
2014-Sep-29 01:11N 50°55' E 003°25'0 0.0
2014-Sep-28 20:32N 50°55' E 003°25'0 0.0
2014-Sep-28 19:32N 50°55' E 003°25'0 0.0
2014-Sep-28 18:29N 50°55' E 003°25'0 0.0
2014-Sep-28 17:29N 50°55' E 003°25'0 0.0
2014-Sep-28 16:32N 50°55' E 003°25'0 0.2
2014-Sep-28 15:29N 50°55' E 003°25'4 4.0
2014-Sep-28 14:33N 50°58' E 003°29'4 4.3
2014-Sep-28 13:33N 51°02' E 003°33'4 4.3
2014-Sep-28 12:33N 51°06' E 003°36'3 2.7
2014-Sep-28 11:32N 51°05' E 003°40'0 0.2
2014-Sep-28 10:26N 51°05' E 003°40'0 0.0
2014-Sep-28 09:26N 51°05' E 003°40'0 0.3
2014-Sep-28 08:29N 51°06' E 003°41'2 2.2
2014-Sep-28 07:33N 51°06' E 003°44'8 7.7
2014-Sep-28 06:31N 51°14' E 003°48'7 5.9
2014-Sep-28 05:25N 51°20' E 003°49'7 7.8
2014-Sep-28 04:33N 51°25' E 003°57'3 3.3
2014-Sep-28 03:33N 51°27' E 004°01'0 0.0
2014-Sep-28 02:32N 51°27' E 004°01'0 0.0
2014-Sep-28 01:33N 51°27' E 004°01'0 0.0
2014-Sep-28 00:20N 51°27' E 004°01'0 0.0
2014-Sep-27 23:33N 51°27' E 004°01'0 0.0
2014-Sep-27 22:23N 51°27' E 004°01'0 0.0
2014-Sep-27 21:23N 51°27' E 004°01'0 0.0
2014-Sep-27 20:19N 51°27' E 004°01'0 0.0
2014-Sep-27 19:31N 51°27' E 004°01'0 0.0
2014-Sep-27 18:22N 51°27' E 004°01'0 0.0
2014-Sep-27 17:24N 51°27' E 004°01'4 4.6
2014-Sep-27 16:33N 51°31' E 004°01'11 4.6
2014-Sep-27 14:11N 51°40' E 004°11'5 7.5
2014-Sep-27 13:30N 51°39' E 004°19'15 5.2
2014-Sep-27 10:33N 51°44' E 004°42'7 7.2
2014-Sep-27 09:33N 51°48' E 004°52'8 8.0
2014-Sep-27 08:34N 51°50' E 005°05'9 8.6
2014-Sep-27 07:33N 51°49' E 005°19'8 7.4
2014-Sep-27 06:33N 51°53' E 005°29'60 4.0
2014-Sep-26 15:30N 51°15' E 006°44'6 6.4
2014-Sep-26 14:33N 51°10' E 006°48'125 4.4
2014-Sep-25 10:25N 49°23' E 008°30'8 8.8
2014-Sep-25 09:33N 49°16' E 008°26'1111.0
2014-Sep-25 08:33N 49°05' E 008°21'26 8.6
2014-Sep-25 05:34N 48°44' E 007°58'  
Track history (hours):
 
Tides and Currents Weather Stations Pressure Air Temp Water Temp Dewpoint Dewpoint Depression Visibility Wind Speed Wind Dir Waves Ship Positions

Porthos

Last reported at 2014-Sep-29 06:28 UTC. Time now 2014-Oct-01 08:11 UTC.
Position N 50°48' E 003°09'.

Length 39 m; draft 3 m.

MMSI: 226002650.

Date/timePositionNaut miles runAvg speedWind from/ knotsBaromVisibWave heightAir tempDewpointWater temp
2014-Sep-29 06:28N 50°48' E 003°09'6 6.1
2014-Sep-29 05:34N 50°50' E 003°17'5 5.0
2014-Sep-29 04:33N 50°54' E 003°23'2 1.6
2014-Sep-29 03:20N 50°55' E 003°25'0 0.0
2014-Sep-29 02:29N 50°55' E 003°25'0 0.0
2014-Sep-29 01:11N 50°55' E 003°25'0 0.0
2014-Sep-28 20:32N 50°55' E 003°25'0 0.0
2014-Sep-28 19:32N 50°55' E 003°25'0 0.0
2014-Sep-28 18:29N 50°55' E 003°25'0 0.0
2014-Sep-28 17:29N 50°55' E 003°25'0 0.0
2014-Sep-28 16:32N 50°55' E 003°25'0 0.2
2014-Sep-28 15:29N 50°55' E 003°25'4 4.0
2014-Sep-28 14:33N 50°58' E 003°29'4 4.3
2014-Sep-28 13:33N 51°02' E 003°33'4 4.3
2014-Sep-28 12:33N 51°06' E 003°36'3 2.7
2014-Sep-28 11:32N 51°05' E 003°40'0 0.2
2014-Sep-28 10:26N 51°05' E 003°40'0 0.0
2014-Sep-28 09:26N 51°05' E 003°40'0 0.3
2014-Sep-28 08:29N 51°06' E 003°41'2 2.2
2014-Sep-28 07:33N 51°06' E 003°44'8 7.7
2014-Sep-28 06:31N 51°14' E 003°48'7 5.9
2014-Sep-28 05:25N 51°20' E 003°49'7 7.8
2014-Sep-28 04:33N 51°25' E 003°57'3 3.3
2014-Sep-28 03:33N 51°27' E 004°01'0 0.0
2014-Sep-28 02:32N 51°27' E 004°01'0 0.0
2014-Sep-28 01:33N 51°27' E 004°01'0 0.0
2014-Sep-28 00:20N 51°27' E 004°01'0 0.0
2014-Sep-27 23:33N 51°27' E 004°01'0 0.0
2014-Sep-27 22:23N 51°27' E 004°01'0 0.0
2014-Sep-27 21:23N 51°27' E 004°01'0 0.0
2014-Sep-27 20:19N 51°27' E 004°01'0 0.0
2014-Sep-27 19:31N 51°27' E 004°01'0 0.0
2014-Sep-27 18:22N 51°27' E 004°01'0 0.0
2014-Sep-27 17:24N 51°27' E 004°01'4 4.6
2014-Sep-27 16:33N 51°31' E 004°01'11 4.6
2014-Sep-27 14:11N 51°40' E 004°11'5 7.5
2014-Sep-27 13:30N 51°39' E 004°19'15 5.2
2014-Sep-27 10:33N 51°44' E 004°42'7 7.2
2014-Sep-27 09:33N 51°48' E 004°52'8 8.0
2014-Sep-27 08:34N 51°50' E 005°05'9 8.6
2014-Sep-27 07:33N 51°49' E 005°19'8 7.4
2014-Sep-27 06:33N 51°53' E 005°29'60 4.0
2014-Sep-26 15:30N 51°15' E 006°44'6 6.4
2014-Sep-26 14:33N 51°10' E 006°48'125 4.4
2014-Sep-25 10:25N 49°23' E 008°30'8 8.8
2014-Sep-25 09:33N 49°16' E 008°26'1111.0
2014-Sep-25 08:33N 49°05' E 008°21'26 8.6
2014-Sep-25 05:34N 48°44' E 007°58'  

Dump ship's entire track history